createdAt,value
2019-03-24T00:02:25.306Z,66.26
2019-03-24T00:04:51.352Z,66.08
2019-03-24T00:07:17.479Z,66.00
2019-03-24T00:09:43.611Z,66.52
2019-03-24T00:12:09.733Z,66.57
2019-03-24T00:14:35.858Z,67.09
2019-03-24T00:17:02.001Z,67.12
2019-03-24T00:19:28.158Z,66.89
2019-03-24T00:21:54.308Z,66.61
2019-03-24T00:24:20.531Z,66.85
2019-03-24T00:26:50.265Z,66.86
2019-03-24T00:29:16.386Z,67.01
2019-03-24T00:31:42.586Z,67.43
2019-03-24T00:34:08.699Z,67.27
2019-03-24T00:36:34.861Z,68.09
2019-03-24T00:39:00.991Z,68.30
2019-03-24T00:41:29.587Z,68.85
2019-03-24T00:43:55.714Z,68.56
2019-03-24T00:46:21.835Z,68.32
2019-03-24T00:48:47.905Z,68.25
2019-03-24T00:51:14.078Z,68.26
2019-03-24T00:53:40.326Z,68.04
2019-03-24T00:56:06.550Z,67.89
2019-03-24T00:58:32.679Z,67.73
2019-03-24T01:00:58.917Z,67.73
2019-03-24T01:03:25.154Z,67.87
2019-03-24T01:05:51.374Z,68.08
2019-03-24T01:08:17.713Z,69.07
2019-03-24T01:10:43.839Z,68.92
2019-03-24T01:13:11.667Z,68.57
2019-03-24T01:15:47.309Z,68.72
2019-03-24T01:18:05.841Z,68.57
2019-03-24T01:20:32.007Z,68.73
2019-03-24T01:22:58.236Z,68.50
2019-03-24T01:25:25.989Z,68.51
2019-03-24T01:27:53.404Z,68.51
2019-03-24T01:30:19.644Z,68.50
2019-03-24T01:32:45.789Z,68.66
2019-03-24T01:35:11.927Z,68.89
2019-03-24T01:37:38.068Z,68.97
2019-03-24T01:40:05.422Z,68.79
2019-03-24T01:42:31.551Z,68.98
2019-03-24T01:44:57.717Z,69.08
2019-03-24T01:47:23.878Z,68.88
2019-03-24T01:49:50.044Z,68.71
2019-03-24T01:52:16.174Z,68.78
2019-03-24T01:54:42.254Z,68.72
2019-03-24T01:57:08.385Z,68.68
2019-03-24T01:59:34.343Z,69.21
2019-03-24T02:02:00.472Z,69.46
2019-03-24T02:04:26.525Z,69.25
2019-03-24T02:06:52.667Z,69.42
2019-03-24T02:09:18.824Z,69.33
2019-03-24T02:11:44.950Z,69.38
2019-03-24T02:14:11.123Z,69.53
2019-03-24T02:16:37.246Z,69.44
2019-03-24T02:19:07.463Z,69.40
2019-03-24T02:21:31.353Z,69.17
2019-03-24T02:23:57.515Z,69.21
2019-03-24T02:26:23.771Z,70.12
2019-03-24T02:28:49.917Z,70.29
2019-03-24T02:31:15.951Z,70.04
2019-03-24T02:33:42.157Z,70.75
2019-03-24T02:36:08.277Z,70.24
2019-03-24T02:38:34.409Z,70.43
2019-03-24T02:41:00.537Z,70.22
2019-03-24T02:43:26.604Z,70.07
2019-03-24T02:45:52.718Z,70.16
2019-03-24T02:48:18.850Z,70.04
2019-03-24T02:50:46.161Z,70.06
2019-03-24T02:53:12.207Z,69.84
2019-03-24T02:55:38.322Z,69.82
2019-03-24T02:58:05.999Z,70.26
2019-03-24T03:00:32.156Z,70.68
2019-03-24T03:02:58.322Z,70.60
2019-03-24T03:05:24.579Z,70.56
2019-03-24T03:07:50.758Z,70.62
2019-03-24T03:10:17.097Z,70.37
2019-03-24T03:12:43.223Z,70.27
2019-03-24T03:15:09.883Z,70.56
2019-03-24T03:17:35.976Z,70.62
2019-03-24T03:20:04.314Z,70.80
2019-03-24T03:22:30.427Z,70.74
2019-03-24T03:24:56.646Z,70.51
2019-03-24T03:27:23.853Z,70.67
2019-03-24T03:29:49.996Z,71.00
2019-03-24T03:32:16.134Z,71.29
2019-03-24T03:34:42.295Z,71.11
2019-03-24T03:37:08.439Z,71.19
2019-03-24T03:39:34.548Z,71.47
2019-03-24T03:42:00.698Z,72.06
2019-03-24T03:44:26.828Z,72.56
2019-03-24T03:46:53.451Z,73.18
2019-03-24T03:49:19.741Z,72.83
2019-03-24T03:51:45.786Z,72.68
2019-03-24T03:54:12.116Z,72.67
2019-03-24T03:56:38.252Z,73.20
2019-03-24T03:59:04.393Z,73.00
2019-03-24T04:01:30.933Z,73.24
2019-03-24T04:03:56.962Z,73.04
2019-03-24T04:06:23.119Z,72.97
2019-03-24T04:08:49.193Z,72.86
2019-03-24T04:11:15.376Z,73.25
2019-03-24T04:13:41.514Z,73.18
2019-03-24T04:16:07.669Z,73.68
2019-03-24T04:18:33.683Z,73.66
2019-03-24T04:20:59.744Z,74.03
2019-03-24T04:23:25.893Z,74.27
2019-03-24T04:25:51.921Z,74.05
2019-03-24T04:28:18.076Z,74.12
2019-03-24T04:30:46.528Z,74.54
2019-03-24T04:33:12.662Z,75.16
2019-03-24T04:35:38.761Z,76.04
2019-03-24T04:38:04.878Z,75.27
2019-03-24T04:40:31.212Z,74.90
2019-03-24T04:42:57.337Z,74.75
2019-03-24T04:45:23.484Z,74.57
2019-03-24T04:47:49.513Z,74.34
2019-03-24T04:50:15.717Z,74.24
2019-03-24T04:52:41.851Z,76.19
2019-03-24T04:55:08.628Z,75.88
2019-03-24T04:57:34.776Z,75.70
2019-03-24T05:00:01.329Z,75.84
2019-03-24T05:02:28.780Z,76.04
2019-03-24T05:04:54.874Z,75.56
2019-03-24T05:07:21.023Z,75.41
2019-03-24T05:09:47.393Z,75.36
2019-03-24T05:12:13.513Z,75.13
2019-03-24T05:14:39.564Z,75.10
2019-03-24T05:17:05.734Z,75.33
2019-03-24T05:19:31.858Z,75.17
2019-03-24T05:21:57.834Z,75.14
2019-03-24T05:24:23.959Z,76.84
2019-03-24T05:26:50.141Z,76.56
2019-03-24T05:29:16.181Z,76.82
2019-03-24T05:31:42.302Z,76.51
2019-03-24T05:34:08.425Z,76.44
2019-03-24T05:36:34.365Z,76.18
2019-03-24T05:39:00.483Z,76.80
2019-03-24T05:41:26.507Z,76.74
2019-03-24T05:43:52.728Z,79.09
2019-03-24T05:46:18.895Z,78.12
2019-03-24T05:48:45.069Z,78.56
2019-03-24T05:51:11.239Z,79.06
2019-03-24T05:53:37.361Z,78.60
2019-03-24T05:56:03.485Z,78.34
2019-03-24T05:58:29.616Z,78.65
2019-03-24T06:00:55.755Z,78.58
2019-03-24T06:03:21.892Z,77.95
2019-03-24T06:05:48.013Z,78.55
2019-03-24T06:08:14.140Z,77.81
2019-03-24T06:10:44.413Z,78.71
2019-03-24T06:13:08.325Z,78.09
2019-03-24T06:15:34.484Z,79.15
2019-03-24T06:18:00.604Z,78.32
2019-03-24T06:20:26.641Z,77.91
2019-03-24T06:22:52.803Z,78.20
2019-03-24T06:25:18.932Z,77.83
2019-03-24T06:27:44.997Z,78.57
2019-03-24T06:30:11.131Z,77.91
2019-03-24T06:32:37.277Z,78.83
2019-03-24T06:35:04.928Z,78.36
2019-03-24T06:37:31.097Z,77.94
2019-03-24T06:39:57.218Z,78.57
2019-03-24T06:42:23.188Z,79.53
2019-03-24T06:44:49.308Z,78.64
2019-03-24T06:47:15.367Z,80.50
2019-03-24T06:49:41.408Z,79.67
2019-03-24T06:52:07.739Z,79.41
2019-03-24T06:54:33.872Z,81.21
2019-03-24T06:57:00.184Z,80.72
2019-03-24T06:59:26.125Z,80.69
2019-03-24T07:01:52.156Z,80.44
2019-03-24T07:04:18.296Z,80.69
2019-03-24T07:06:44.441Z,80.10
2019-03-24T07:09:10.598Z,79.58
2019-03-24T07:11:36.721Z,80.37
2019-03-24T07:14:02.849Z,81.42
2019-03-24T07:16:28.967Z,80.64
2019-03-24T07:18:55.090Z,80.62
2019-03-24T07:21:21.230Z,80.28
2019-03-24T07:23:47.375Z,80.14
2019-03-24T07:26:13.512Z,80.26
2019-03-24T07:28:40.668Z,81.42
2019-03-24T07:31:06.715Z,81.09
2019-03-24T07:33:32.839Z,80.65
2019-03-24T07:35:59.070Z,80.79
2019-03-24T07:38:25.236Z,81.02
2019-03-24T07:40:51.385Z,81.71
2019-03-24T07:43:17.620Z,81.56
2019-03-24T07:45:43.778Z,83.77
2019-03-24T07:48:18.651Z,82.75
2019-03-24T07:50:40.003Z,82.88
2019-03-24T07:53:06.149Z,83.49
2019-03-24T07:55:32.280Z,83.38
2019-03-24T07:57:58.408Z,82.27
2019-03-24T08:00:33.310Z,81.76
2019-03-24T08:02:59.588Z,81.35
2019-03-24T08:05:25.818Z,81.10
2019-03-24T08:07:54.071Z,81.08
2019-03-24T08:10:20.881Z,80.89
2019-03-24T08:12:47.569Z,80.81
2019-03-24T08:15:18.803Z,80.71
2019-03-24T08:17:45.221Z,80.67
2019-03-24T08:20:13.872Z,80.88
2019-03-24T08:22:40.015Z,81.34
2019-03-24T08:25:06.351Z,80.68
2019-03-24T08:27:32.604Z,80.28
2019-03-24T08:29:58.760Z,80.64
2019-03-24T08:32:24.915Z,81.19
2019-03-24T08:34:51.084Z,81.22
2019-03-24T08:37:17.223Z,80.78
2019-03-24T08:39:43.362Z,80.66
2019-03-24T08:42:09.647Z,80.78
2019-03-24T08:44:35.892Z,81.68
2019-03-24T08:47:02.013Z,81.47
2019-03-24T08:49:28.233Z,81.81
2019-03-24T08:51:54.330Z,81.50
2019-03-24T08:54:20.721Z,81.45
2019-03-24T08:56:47.351Z,82.33
2019-03-24T08:59:13.607Z,83.64
2019-03-24T09:01:39.957Z,82.68
2019-03-24T09:04:16.462Z,82.14
2019-03-24T09:06:40.357Z,82.93
2019-03-24T09:09:06.750Z,82.45
2019-03-24T09:11:35.212Z,82.06
2019-03-24T09:14:01.624Z,82.19
2019-03-24T09:16:27.923Z,82.08
2019-03-24T09:18:54.190Z,82.72
2019-03-24T09:21:23.754Z,83.17
2019-03-24T09:23:57.360Z,82.77
2019-03-24T09:26:23.718Z,81.93
2019-03-24T09:28:59.204Z,81.73
2019-03-24T09:31:25.660Z,81.74
2019-03-24T09:34:45.163Z,81.74
2019-03-24T09:37:01.340Z,81.87
2019-03-24T09:40:00.469Z,81.92
2019-03-24T09:45:37.122Z,82.52
2019-03-24T09:48:21.939Z,81.66
2019-03-24T10:07:07.220Z,79.21
2019-03-24T10:09:33.590Z,78.50
2019-03-24T10:12:00.205Z,78.32
2019-03-24T10:14:26.957Z,77.72
2019-03-24T10:16:55.616Z,77.53
2019-03-24T10:19:35.571Z,77.36
2019-03-24T10:22:04.924Z,77.62
2019-03-24T10:24:33.235Z,76.15
2019-03-24T10:26:59.984Z,76.26
2019-03-24T10:29:26.234Z,76.17
2019-03-24T10:32:18.719Z,75.90
2019-03-24T10:34:45.242Z,75.80
2019-03-24T10:37:11.800Z,75.49
2019-03-24T10:39:40.158Z,75.23
2019-03-24T10:42:06.492Z,74.81
2019-03-24T10:44:33.054Z,73.35
2019-03-24T10:47:08.421Z,71.49
2019-03-24T10:49:34.706Z,71.11
2019-03-24T10:52:09.659Z,70.97
2019-03-24T10:54:36.140Z,69.98
2019-03-24T10:57:11.232Z,69.32
2019-03-24T10:59:37.670Z,69.06
2019-03-24T11:05:59.714Z,68.42
2019-03-24T11:08:27.426Z,67.86
2019-03-24T11:10:53.894Z,66.92
2019-03-24T11:13:21.705Z,67.58
2019-03-24T11:15:48.116Z,67.86
2019-03-24T11:18:14.828Z,66.88
2019-03-24T11:20:41.404Z,67.42
2019-03-24T11:23:08.062Z,67.50
2019-03-24T11:25:48.647Z,66.80
2019-03-24T11:28:15.485Z,66.29
2019-03-24T11:30:47.051Z,66.63
2019-03-24T11:33:13.354Z,66.84
2019-03-24T11:35:39.912Z,66.68
2019-03-24T11:38:06.679Z,66.41
2019-03-24T11:43:41.127Z,66.60
2019-03-24T11:49:16.420Z,66.51
2019-03-24T11:51:42.791Z,66.68
2019-03-24T11:54:09.100Z,67.09
2019-03-24T11:56:35.330Z,67.11
2019-03-24T11:59:01.590Z,67.65
2019-03-24T12:01:37.760Z,67.60
2019-03-24T12:03:56.140Z,67.96
2019-03-24T12:06:22.434Z,67.33
2019-03-24T12:08:48.807Z,67.55
2019-03-24T12:11:15.109Z,67.24
2019-03-24T12:13:41.379Z,67.76
2019-03-24T12:16:07.734Z,67.70
2019-03-24T12:18:34.450Z,67.05
2019-03-24T12:21:00.759Z,67.03
2019-03-24T12:23:27.005Z,66.59
2019-03-24T12:25:53.293Z,66.26
2019-03-24T12:28:19.589Z,65.92
2019-03-24T12:30:45.856Z,66.10
2019-03-24T12:33:12.133Z,65.97
2019-03-24T12:35:38.379Z,66.07
2019-03-24T12:38:04.674Z,66.50
2019-03-24T12:40:31.020Z,66.49
2019-03-24T12:42:57.271Z,66.17
2019-03-24T12:45:23.511Z,66.04
2019-03-24T12:47:49.815Z,65.71
2019-03-24T12:50:16.936Z,66.06
2019-03-24T12:52:43.228Z,66.82
2019-03-24T12:55:09.529Z,66.19
2019-03-24T12:57:35.837Z,66.05
2019-03-24T13:00:08.062Z,65.97
2019-03-24T13:02:34.422Z,66.46
2019-03-24T13:05:00.693Z,66.02
2019-03-24T13:07:27.015Z,65.97
2019-03-24T13:09:53.341Z,66.66
2019-03-24T13:12:19.682Z,66.31
2019-03-24T13:14:45.989Z,66.16
2019-03-24T13:17:12.273Z,66.11
2019-03-24T13:19:38.678Z,66.34
2019-03-24T13:22:04.983Z,66.39
2019-03-24T13:24:31.365Z,66.18
2019-03-24T13:27:00.588Z,66.25
2019-03-24T13:29:26.887Z,66.04
2019-03-24T13:31:53.156Z,66.24
2019-03-24T13:34:22.240Z,66.14
2019-03-24T13:36:48.590Z,66.22
2019-03-24T13:39:14.909Z,65.48
2019-03-24T13:41:41.176Z,65.58
2019-03-24T13:44:07.435Z,65.52
2019-03-24T13:46:33.704Z,65.47
2019-03-24T13:49:01.381Z,65.14
2019-03-24T13:51:27.651Z,65.05
2019-03-24T13:53:53.899Z,65.15
2019-03-24T13:56:20.259Z,64.40
2019-03-24T13:58:46.572Z,64.37
2019-03-24T14:01:13.296Z,64.37
2019-03-24T14:03:39.577Z,64.62
2019-03-24T14:06:06.344Z,63.97
2019-03-24T14:08:32.613Z,64.28
2019-03-24T14:10:58.849Z,63.89
2019-03-24T14:13:25.128Z,63.89
2019-03-24T14:15:51.406Z,64.17
2019-03-24T14:18:17.650Z,64.55
2019-03-24T14:20:45.814Z,64.61
2019-03-24T14:23:14.295Z,64.60
2019-03-24T14:25:40.441Z,64.61
2019-03-24T14:28:06.733Z,64.58
2019-03-24T14:30:40.557Z,64.33
2019-03-24T14:33:06.793Z,64.31
2019-03-24T14:35:33.064Z,64.14
2019-03-24T14:37:59.349Z,63.98
2019-03-24T14:40:25.809Z,63.85
2019-03-24T14:42:52.089Z,64.00
2019-03-24T14:45:18.366Z,63.73
2019-03-24T14:47:44.672Z,63.65
2019-03-24T14:50:11.063Z,63.31
2019-03-24T14:52:38.739Z,63.08
2019-03-24T14:55:06.776Z,63.17
2019-03-24T14:57:33.083Z,63.21
2019-03-24T14:59:59.356Z,63.19
2019-03-24T15:02:25.636Z,63.07
2019-03-24T15:04:51.885Z,63.04
2019-03-24T15:07:18.131Z,62.86
2019-03-24T15:09:47.429Z,62.83
2019-03-24T15:12:13.514Z,62.80
2019-03-24T15:14:39.826Z,62.70
2019-03-24T15:17:06.045Z,62.53
2019-03-24T15:19:32.396Z,62.55
2019-03-24T15:21:58.626Z,62.64
2019-03-24T15:24:24.897Z,62.45
2019-03-24T15:26:51.160Z,61.89
2019-03-24T15:29:17.458Z,61.96
2019-03-24T15:31:43.709Z,61.91
2019-03-24T15:34:09.709Z,62.11
2019-03-24T15:36:36.133Z,62.25
2019-03-24T15:39:06.097Z,62.22
2019-03-24T15:41:32.414Z,62.15
2019-03-24T15:43:58.724Z,62.26
2019-03-24T15:46:24.886Z,62.23
2019-03-24T15:48:51.276Z,61.79
2019-03-24T15:51:17.570Z,61.80
2019-03-24T15:53:47.044Z,61.91
2019-03-24T15:56:13.369Z,61.84
2019-03-24T15:58:39.668Z,61.91
2019-03-24T16:01:06.109Z,61.93
2019-03-24T16:03:32.339Z,61.94
2019-03-24T16:05:58.503Z,61.64
2019-03-24T16:08:24.793Z,61.27
2019-03-24T16:10:52.255Z,61.52
2019-03-24T16:13:18.608Z,60.96
2019-03-24T16:15:44.828Z,61.29
2019-03-24T16:18:11.202Z,61.36
2019-03-24T16:20:37.481Z,61.47
2019-03-24T16:23:04.010Z,61.38
2019-03-24T16:25:30.294Z,61.26
2019-03-24T16:27:57.076Z,61.17
2019-03-24T16:30:23.401Z,61.05
2019-03-24T16:32:49.522Z,61.04
2019-03-24T16:35:15.779Z,61.20
2019-03-24T16:37:42.032Z,61.36
2019-03-24T16:40:08.366Z,61.49
2019-03-24T16:42:34.492Z,61.47
2019-03-24T16:45:00.612Z,61.63
2019-03-24T16:47:26.845Z,61.58
2019-03-24T16:49:52.943Z,61.29
2019-03-24T16:52:19.092Z,61.37
2019-03-24T16:54:47.135Z,61.62
2019-03-24T16:57:13.659Z,61.99
2019-03-24T16:59:39.782Z,62.38
2019-03-24T17:02:06.033Z,62.54
2019-03-24T17:04:32.269Z,62.07
2019-03-24T17:07:00.382Z,61.83
2019-03-24T17:09:26.705Z,61.82
2019-03-24T17:11:53.141Z,61.85
2019-03-24T17:14:19.628Z,61.88
2019-03-24T17:16:51.885Z,62.18
2019-03-24T17:19:18.143Z,62.48
2019-03-24T17:21:49.789Z,62.25
2019-03-24T17:24:12.670Z,62.12
2019-03-24T17:26:38.931Z,62.20
2019-03-24T17:29:05.176Z,62.30
2019-03-24T17:31:31.469Z,62.17
2019-03-24T17:33:57.732Z,62.25
2019-03-24T17:36:24.060Z,61.98
2019-03-24T17:38:50.238Z,61.72
2019-03-24T17:41:20.349Z,62.07
2019-03-24T17:43:46.509Z,62.35
2019-03-24T17:46:12.819Z,62.38
2019-03-24T17:48:39.058Z,62.22
2019-03-24T17:51:05.299Z,62.03
2019-03-24T17:53:31.604Z,61.89
2019-03-24T17:55:57.904Z,61.70
2019-03-24T17:58:24.139Z,61.66
2019-03-24T18:00:52.193Z,61.81
2019-03-24T18:03:18.481Z,61.79
2019-03-24T18:05:51.874Z,61.83
2019-03-24T18:08:15.664Z,62.04
2019-03-24T18:10:41.923Z,62.17
2019-03-24T18:13:08.228Z,62.51
2019-03-24T18:15:34.413Z,63.11
2019-03-24T18:18:00.705Z,63.15
2019-03-24T18:20:28.923Z,63.21
2019-03-24T18:22:55.074Z,63.32
2019-03-24T18:25:27.294Z,63.54
2019-03-24T18:27:49.517Z,63.92
2019-03-24T18:30:16.085Z,64.26
2019-03-24T18:32:42.382Z,64.53
2019-03-24T18:35:08.922Z,64.55
2019-03-24T18:37:35.118Z,64.86
2019-03-24T18:40:01.427Z,64.69
2019-03-24T18:42:28.840Z,64.60
2019-03-24T18:44:55.230Z,64.60
2019-03-24T18:47:21.490Z,64.66
2019-03-24T18:49:47.795Z,65.69
2019-03-24T18:52:22.328Z,65.67
2019-03-24T18:54:43.290Z,65.86
2019-03-24T18:57:10.717Z,65.74
2019-03-24T18:59:37.075Z,65.71
2019-03-24T19:02:03.304Z,65.74
2019-03-24T19:04:29.551Z,65.82
2019-03-24T19:06:55.797Z,65.93
2019-03-24T19:09:21.985Z,66.02
2019-03-24T19:11:48.119Z,66.28
2019-03-24T19:14:14.355Z,66.38
2019-03-24T19:16:40.394Z,66.10
2019-03-24T19:19:06.776Z,66.02
2019-03-24T19:21:33.155Z,66.10
2019-03-24T19:23:59.530Z,66.21
2019-03-24T19:28:54.213Z,66.50
2019-03-24T19:31:20.499Z,66.82
2019-03-24T19:33:46.825Z,66.75
2019-03-24T19:36:13.129Z,66.66
2019-03-24T19:38:40.386Z,66.58
2019-03-24T19:41:06.653Z,66.48
2019-03-24T19:43:32.966Z,66.52
2019-03-24T19:45:59.408Z,66.84
2019-03-24T19:48:25.782Z,66.61
2019-03-24T19:50:52.091Z,66.42
2019-03-24T19:53:18.373Z,66.17
2019-03-24T19:55:44.618Z,66.35
2019-03-24T19:58:10.893Z,66.45
2019-03-24T20:00:38.879Z,66.58
2019-03-24T20:03:05.243Z,66.57
2019-03-24T20:05:31.425Z,66.62
2019-03-24T20:07:57.681Z,66.43
2019-03-24T20:10:23.980Z,66.34
2019-03-24T20:12:50.140Z,66.16
2019-03-24T20:15:16.451Z,66.53
2019-03-24T20:17:42.735Z,66.35
2019-03-24T20:20:09.185Z,66.38
2019-03-24T20:22:35.472Z,66.41
2019-03-24T20:25:01.770Z,66.44
2019-03-24T20:27:28.075Z,66.86
2019-03-24T20:29:54.346Z,67.04
2019-03-24T20:32:20.634Z,66.92
2019-03-24T20:34:46.873Z,66.79
2019-03-24T20:37:13.141Z,66.76
2019-03-24T20:39:39.327Z,66.81
2019-03-24T20:42:05.618Z,66.60
2019-03-24T20:44:31.873Z,66.74
2019-03-24T20:46:58.045Z,66.79
2019-03-24T20:49:24.336Z,66.70
2019-03-24T20:51:50.574Z,66.60
2019-03-24T20:54:16.863Z,66.56
2019-03-24T20:56:43.123Z,66.71
2019-03-24T20:59:09.447Z,66.87
2019-03-24T21:01:35.730Z,67.33
2019-03-24T21:04:01.972Z,67.56
2019-03-24T21:06:28.331Z,67.46
2019-03-24T21:08:54.604Z,67.73
2019-03-24T21:11:20.843Z,68.03
2019-03-24T21:13:47.220Z,68.39
2019-03-24T21:16:13.433Z,68.41
2019-03-24T21:18:39.682Z,68.26
2019-03-24T21:21:06.012Z,68.17
2019-03-24T21:23:32.260Z,68.26
2019-03-24T21:25:58.498Z,68.19
2019-03-24T21:28:24.756Z,68.33
2019-03-24T21:30:50.991Z,68.48
2019-03-24T21:33:17.253Z,68.52
2019-03-24T21:35:43.507Z,68.98
2019-03-24T21:38:09.753Z,69.03
2019-03-24T21:40:37.871Z,69.43
2019-03-24T21:43:06.488Z,69.79
2019-03-24T21:45:34.692Z,69.70
2019-03-24T21:48:00.899Z,69.64
2019-03-24T21:50:27.158Z,69.73
2019-03-24T21:52:53.283Z,69.51
2019-03-24T21:55:19.556Z,69.51
2019-03-24T21:57:56.920Z,69.51
2019-03-24T22:00:17.580Z,69.40
2019-03-24T22:02:43.708Z,69.36
2019-03-24T22:05:09.859Z,69.38
2019-03-24T22:07:36.114Z,69.46
2019-03-24T22:10:04.248Z,69.97
2019-03-24T22:12:33.277Z,69.71
2019-03-24T22:14:59.459Z,69.51
2019-03-24T22:17:25.718Z,69.39
2019-03-24T22:19:51.912Z,69.47
2019-03-24T22:22:20.828Z,69.64
2019-03-24T22:24:47.083Z,69.73
2019-03-24T22:27:13.359Z,69.87
2019-03-24T22:29:41.879Z,69.80
2019-03-24T22:32:08.039Z,69.75
2019-03-24T22:34:34.325Z,69.65
2019-03-24T22:37:00.371Z,69.93
2019-03-24T22:39:26.642Z,70.39
2019-03-24T22:41:52.803Z,70.58
2019-03-24T22:44:19.334Z,70.94
2019-03-24T22:46:45.486Z,71.19
2019-03-24T22:49:13.604Z,71.63
2019-03-24T22:51:39.837Z,71.58
2019-03-24T22:54:05.984Z,71.95
2019-03-24T22:56:32.106Z,72.10
2019-03-24T22:58:58.334Z,72.11
2019-03-24T23:01:24.598Z,72.40
2019-03-24T23:03:50.904Z,72.59
2019-03-24T23:06:17.151Z,72.30
2019-03-24T23:08:43.387Z,72.17
2019-03-24T23:11:09.517Z,72.36
2019-03-24T23:13:35.759Z,72.52
2019-03-24T23:16:01.932Z,72.47
2019-03-24T23:18:28.063Z,72.30
2019-03-24T23:20:54.362Z,72.18
2019-03-24T23:23:20.468Z,72.19
2019-03-24T23:25:46.740Z,72.12
2019-03-24T23:28:12.989Z,72.25
2019-03-24T23:30:39.251Z,72.69
2019-03-24T23:33:05.379Z,73.41
2019-03-24T23:35:31.600Z,73.37
2019-03-24T23:37:57.825Z,73.08
2019-03-24T23:40:24.460Z,72.98
2019-03-24T23:42:52.504Z,73.18
2019-03-24T23:45:19.462Z,73.33
2019-03-24T23:47:45.734Z,73.19
2019-03-24T23:50:12.077Z,73.01
2019-03-24T23:52:38.320Z,73.05
2019-03-24T23:55:04.790Z,73.08
2019-03-24T23:57:32.819Z,73.11
2019-03-24T23:59:58.966Z,73.34
